createdAt,value
2022-09-02T00:01:56.637Z,13.65
2022-09-02T00:04:28.335Z,11.48
2022-09-02T00:06:57.077Z,7.93
2022-09-02T00:09:27.218Z,8.35
2022-09-02T00:11:58.057Z,9.90
2022-09-02T00:14:29.593Z,8.32
2022-09-02T00:17:00.855Z,7.82
2022-09-02T00:19:32.476Z,8.25
2022-09-02T00:22:02.679Z,8.80
2022-09-02T00:24:32.225Z,9.52
2022-09-02T00:27:01.261Z,8.32
2022-09-02T00:29:30.944Z,9.50
2022-09-02T00:32:00.244Z,9.77
2022-09-02T00:34:29.106Z,7.50
2022-09-02T00:36:59.336Z,7.47
2022-09-02T00:39:28.210Z,6.57
2022-09-02T00:41:57.056Z,8.15
2022-09-02T00:44:25.787Z,8.23
2022-09-02T00:46:54.675Z,7.75
2022-09-02T00:49:27.049Z,10.30
2022-09-02T00:52:00.477Z,9.43
2022-09-02T00:54:33.396Z,9.52
2022-09-02T00:57:04.812Z,10.75
2022-09-02T00:59:44.591Z,9.65
2022-09-02T01:02:14.563Z,10.38
2022-09-02T01:04:46.795Z,9.57
2022-09-02T01:07:16.238Z,8.75
2022-09-02T01:09:46.489Z,9.77
2022-09-02T01:12:16.329Z,9.77
2022-09-02T01:14:45.408Z,9.52
2022-09-02T01:17:20.438Z,12.43
2022-09-02T01:19:52.390Z,12.85
2022-09-02T01:22:25.415Z,10.68
2022-09-02T01:24:55.970Z,13.93
2022-09-02T01:27:25.386Z,13.63
2022-09-02T01:29:55.734Z,10.52
2022-09-02T01:32:25.789Z,10.98
2022-09-02T01:34:57.723Z,10.40
2022-09-02T01:37:28.711Z,12.85
2022-09-02T01:39:58.073Z,10.52
2022-09-02T01:42:27.395Z,10.32
2022-09-02T01:44:56.319Z,9.07
2022-09-02T01:47:28.237Z,7.88
2022-09-02T01:49:57.955Z,7.85
2022-09-02T01:52:30.253Z,8.85
2022-09-02T01:54:59.777Z,8.70
2022-09-02T01:57:28.864Z,10.38
2022-09-02T01:59:57.806Z,7.70
2022-09-02T02:02:28.438Z,6.95
2022-09-02T02:04:57.365Z,9.70
2022-09-02T02:07:28.849Z,8.13
2022-09-02T02:09:57.798Z,6.68
2022-09-02T02:12:26.984Z,10.82
2022-09-02T02:14:57.207Z,13.45
2022-09-02T02:17:26.083Z,8.55
2022-09-02T02:19:54.928Z,9.43
2022-09-02T02:22:23.717Z,8.02
2022-09-02T02:24:53.952Z,11.88
2022-09-02T02:27:22.759Z,12.07
2022-09-02T02:29:51.701Z,16.42
2022-09-02T02:32:26.268Z,11.50
2022-09-02T02:34:56.368Z,11.98
2022-09-02T02:37:25.687Z,13.02
2022-09-02T02:39:57.482Z,13.02
2022-09-02T02:42:29.069Z,16.30
2022-09-02T02:44:57.871Z,15.60
2022-09-02T02:47:27.758Z,14.93
2022-09-02T02:49:56.784Z,15.30
2022-09-02T02:52:25.668Z,15.27
2022-09-02T02:54:56.684Z,19.63
2022-09-02T02:57:25.852Z,18.52
2022-09-02T02:59:55.033Z,24.85
2022-09-02T03:02:24.161Z,36.63
2022-09-02T03:04:54.376Z,36.95
2022-09-02T03:07:24.315Z,43.17
2022-09-02T03:09:53.757Z,57.47
2022-09-02T03:12:25.622Z,46.17
2022-09-02T03:14:54.516Z,56.10
2022-09-02T03:17:23.798Z,64.13
2022-09-02T03:19:52.829Z,61.65
2022-09-02T03:22:21.682Z,64.70
2022-09-02T03:24:51.342Z,62.95
2022-09-02T03:27:20.215Z,73.00
2022-09-02T03:29:50.426Z,73.30
2022-09-02T03:32:19.322Z,75.50
2022-09-02T03:34:49.007Z,77.18
2022-09-02T03:37:18.964Z,83.68
2022-09-02T03:39:48.636Z,75.43
2022-09-02T03:42:19.671Z,76.57
2022-09-02T03:47:21.752Z,81.78
2022-09-02T03:49:54.374Z,86.55
2022-09-02T03:52:24.104Z,77.38
2022-09-02T03:54:53.836Z,92.45
2022-09-02T03:57:26.905Z,106.65
2022-09-02T03:59:57.230Z,101.22
2022-09-02T04:02:26.460Z,115.72
2022-09-02T04:04:55.404Z,119.70
2022-09-02T04:07:24.638Z,132.25
2022-09-02T04:09:56.476Z,129.95
2022-09-02T04:12:25.298Z,125.05
2022-09-02T04:15:03.066Z,118.43
2022-09-02T04:17:32.125Z,131.82
2022-09-02T04:20:00.958Z,135.90
2022-09-02T04:22:29.766Z,132.63
2022-09-02T04:24:58.770Z,139.55
2022-09-02T04:27:28.553Z,139.38
2022-09-02T04:29:58.531Z,137.35
2022-09-02T04:32:31.098Z,130.15
2022-09-02T04:35:00.873Z,119.35
2022-09-02T04:37:30.249Z,117.10
2022-09-02T04:39:59.902Z,116.97
2022-09-02T04:42:29.009Z,124.60
2022-09-02T04:44:59.452Z,126.32
2022-09-02T04:47:31.386Z,121.72
2022-09-02T04:50:00.538Z,121.20
2022-09-02T04:52:29.695Z,114.57
2022-09-02T04:54:58.940Z,118.85
2022-09-02T04:57:27.721Z,121.68
2022-09-02T04:59:57.158Z,120.30
2022-09-02T05:02:26.161Z,119.63
2022-09-02T05:04:56.441Z,133.02
2022-09-02T05:07:31.224Z,147.15
2022-09-02T05:10:02.935Z,141.63
2022-09-02T05:12:37.251Z,131.95
2022-09-02T05:15:07.269Z,129.10
2022-09-02T05:17:37.794Z,129.95
2022-09-02T05:20:10.384Z,129.98
2022-09-02T05:22:41.214Z,129.73
2022-09-02T05:25:11.912Z,105.85
2022-09-02T05:27:41.495Z,97.43
2022-09-02T05:30:11.595Z,71.65
2022-09-02T05:32:42.428Z,76.18
2022-09-02T05:35:13.152Z,63.92
2022-09-02T05:37:42.110Z,63.30
2022-09-02T05:40:14.936Z,60.45
2022-09-02T05:42:44.763Z,56.00
2022-09-02T05:45:16.808Z,81.72
2022-09-02T05:47:46.557Z,64.32
2022-09-02T05:50:17.024Z,56.65
2022-09-02T05:52:51.140Z,57.97
2022-09-02T05:55:21.804Z,47.17
2022-09-02T05:57:51.509Z,50.33
2022-09-02T06:00:20.830Z,47.92
2022-09-02T06:02:57.735Z,51.83
2022-09-02T06:05:33.084Z,46.08
2022-09-02T06:10:44.727Z,41.90
2022-09-02T06:13:22.923Z,42.40
2022-09-02T06:15:55.832Z,41.17
2022-09-02T06:18:27.915Z,40.50
2022-09-02T06:20:59.888Z,38.72
2022-09-02T06:23:35.796Z,26.92
2022-09-02T06:26:05.364Z,32.15
2022-09-02T06:28:34.364Z,28.38
2022-09-02T06:31:08.711Z,34.88
2022-09-02T06:33:39.257Z,33.25
2022-09-02T06:36:10.889Z,30.15
2022-09-02T06:38:45.202Z,35.55
2022-09-02T06:41:17.148Z,34.13
2022-09-02T06:43:47.569Z,30.05
2022-09-02T06:46:26.230Z,23.92
2022-09-02T06:48:58.944Z,36.28
2022-09-02T06:51:32.729Z,41.92
2022-09-02T06:54:05.471Z,35.53
2022-09-02T06:56:38.323Z,31.52
2022-09-02T06:59:08.986Z,30.08
2022-09-02T07:01:45.358Z,32.88
2022-09-02T07:04:35.924Z,45.35
2022-09-02T07:07:09.055Z,29.98
2022-09-02T07:09:44.701Z,32.75
2022-09-02T07:12:19.300Z,31.13
2022-09-02T07:14:54.290Z,30.80
2022-09-02T07:17:28.728Z,32.72
2022-09-02T07:20:03.829Z,23.15
2022-09-02T07:22:40.155Z,21.08
2022-09-02T07:25:11.741Z,22.17
2022-09-02T07:27:40.637Z,20.88
2022-09-02T07:30:11.181Z,18.15
2022-09-02T07:32:41.830Z,20.95
2022-09-02T07:35:11.711Z,16.50
2022-09-02T07:37:42.070Z,10.73
2022-09-02T07:40:14.510Z,18.58
2022-09-02T07:42:44.877Z,19.77
2022-09-02T07:45:14.773Z,21.95
2022-09-02T07:47:45.315Z,12.30
2022-09-02T07:50:20.360Z,5.93
2022-09-02T07:52:57.851Z,8.45
2022-09-02T07:55:31.113Z,8.32
2022-09-02T07:58:00.478Z,6.93
2022-09-02T08:00:29.335Z,5.80
2022-09-02T08:03:05.623Z,20.98
2022-09-02T08:05:41.410Z,7.55
2022-09-02T08:08:11.569Z,9.27
2022-09-02T08:10:40.785Z,7.47
2022-09-02T08:13:11.179Z,7.03
2022-09-02T08:15:40.566Z,5.05
2022-09-02T08:18:17.511Z,9.90
2022-09-02T08:20:54.176Z,7.75
2022-09-02T08:23:40.215Z,5.43
2022-09-02T08:26:09.310Z,8.90
2022-09-02T08:28:39.501Z,6.22
2022-09-02T08:31:08.751Z,25.95
2022-09-02T08:33:38.062Z,5.63
2022-09-02T08:36:08.928Z,8.07
2022-09-02T08:38:39.504Z,6.65
2022-09-02T08:41:15.079Z,4.82
2022-09-02T08:43:45.904Z,6.82
2022-09-02T08:46:18.284Z,5.88
2022-09-02T08:48:53.054Z,5.30
2022-09-02T08:51:33.752Z,9.15
2022-09-02T08:54:11.083Z,5.85
2022-09-02T08:56:41.728Z,10.43
2022-09-02T08:59:13.243Z,5.78
2022-09-02T09:01:49.843Z,6.68
2022-09-02T09:04:28.412Z,6.65
2022-09-02T09:07:09.915Z,17.92
2022-09-02T09:09:53.406Z,6.10
2022-09-02T09:15:06.804Z,11.32
2022-09-02T09:17:44.270Z,8.82
2022-09-02T09:20:18.164Z,10.15
2022-09-02T09:22:49.695Z,6.28
2022-09-02T09:25:20.394Z,6.20
2022-09-02T09:27:51.198Z,7.40
2022-09-02T09:30:20.376Z,9.30
2022-09-02T09:32:54.820Z,10.93
2022-09-02T09:35:24.902Z,7.78
2022-09-02T09:37:56.098Z,7.00
2022-09-02T09:40:31.066Z,7.25
2022-09-02T09:43:15.464Z,6.82
2022-09-02T09:45:47.281Z,6.28
2022-09-02T09:48:27.719Z,10.75
2022-09-02T09:51:16.124Z,7.32
2022-09-02T09:53:45.803Z,7.78
2022-09-02T09:56:37.444Z,11.52
2022-09-02T09:59:30.528Z,7.38
2022-09-02T10:01:59.999Z,8.63
2022-09-02T10:04:42.845Z,7.60
2022-09-02T10:07:13.550Z,9.00
2022-09-02T10:09:42.710Z,8.18
2022-09-02T10:12:14.932Z,7.97
2022-09-02T10:14:46.218Z,8.60
2022-09-02T10:17:28.141Z,10.23
2022-09-02T10:20:05.148Z,9.30
2022-09-02T10:22:59.003Z,11.85
2022-09-02T10:25:41.130Z,9.85
2022-09-02T10:28:21.066Z,8.65
2022-09-02T10:30:56.897Z,10.48
2022-09-02T10:33:34.496Z,10.18
2022-09-02T10:36:18.169Z,9.55
2022-09-02T10:38:50.895Z,9.93
2022-09-02T10:41:33.786Z,9.02
2022-09-02T10:44:31.548Z,9.88
2022-09-02T10:47:04.333Z,9.65
2022-09-02T10:49:51.580Z,8.63
2022-09-02T10:52:46.689Z,8.27
2022-09-02T10:55:22.801Z,9.30
2022-09-02T10:57:59.625Z,9.80
2022-09-02T11:00:33.523Z,8.63
2022-09-02T11:03:12.083Z,11.27
2022-09-02T11:05:48.244Z,10.68
2022-09-02T11:08:28.414Z,9.02
2022-09-02T11:11:07.142Z,8.82
2022-09-02T11:13:43.333Z,12.82
2022-09-02T11:16:20.140Z,11.75
2022-09-02T11:18:59.001Z,11.85
2022-09-02T11:21:46.677Z,13.60
2022-09-02T11:24:20.346Z,12.35
2022-09-02T11:26:57.453Z,14.18
2022-09-02T11:29:38.116Z,32.33
2022-09-02T11:32:19.050Z,11.63
2022-09-02T11:34:51.018Z,17.58
2022-09-02T11:37:31.650Z,51.33
2022-09-02T11:40:30.539Z,19.38
2022-09-02T11:43:09.968Z,13.70
2022-09-02T11:46:19.246Z,10.77
2022-09-02T11:49:16.654Z,14.95
2022-09-02T11:55:03.538Z,11.75
2022-09-02T11:57:33.991Z,12.07
2022-09-02T12:00:10.846Z,19.38
2022-09-02T12:02:45.852Z,16.38
2022-09-02T12:05:52.044Z,14.30
2022-09-02T12:09:10.305Z,16.73
2022-09-02T12:11:47.337Z,16.45
2022-09-02T12:15:06.315Z,16.50
2022-09-02T12:17:42.851Z,14.27
2022-09-02T12:20:33.693Z,12.25
2022-09-02T12:23:04.621Z,14.25
2022-09-02T12:25:44.520Z,13.02
2022-09-02T12:28:25.834Z,14.63
2022-09-02T12:31:24.036Z,16.63
2022-09-02T12:33:53.780Z,16.02
2022-09-02T12:36:48.425Z,15.85
2022-09-02T12:39:58.582Z,15.77
2022-09-02T12:42:34.201Z,12.95
2022-09-02T12:45:14.445Z,18.15
2022-09-02T12:47:55.019Z,15.32
2022-09-02T12:50:30.046Z,14.93
2022-09-02T12:53:20.903Z,13.63
2022-09-02T12:55:57.317Z,15.55
2022-09-02T12:58:27.082Z,13.68
2022-09-02T13:01:07.383Z,15.32
2022-09-02T13:03:58.437Z,16.90
2022-09-02T13:06:44.600Z,14.70
2022-09-02T13:09:49.988Z,15.70
2022-09-02T13:13:08.528Z,14.90
2022-09-02T13:16:04.997Z,15.00
2022-09-02T13:19:13.798Z,15.63
2022-09-02T13:21:59.078Z,14.05
2022-09-02T13:24:53.085Z,15.45
2022-09-02T13:28:12.384Z,16.50
2022-09-02T13:31:02.463Z,13.13
2022-09-02T13:33:31.801Z,14.18
2022-09-02T13:36:01.691Z,15.27
2022-09-02T13:38:33.064Z,13.18
2022-09-02T13:41:02.518Z,15.35
2022-09-02T13:43:32.973Z,13.75
2022-09-02T13:46:03.377Z,15.07
2022-09-02T13:48:34.070Z,13.75
2022-09-02T13:51:13.313Z,13.82
2022-09-02T13:54:05.619Z,12.40
2022-09-02T13:56:36.029Z,13.38
2022-09-02T13:59:06.652Z,16.58
2022-09-02T14:01:40.158Z,13.52
2022-09-02T14:04:14.476Z,15.00
2022-09-02T14:06:48.678Z,13.23
2022-09-02T14:09:22.266Z,15.00
2022-09-02T14:11:53.037Z,13.02
2022-09-02T14:14:25.546Z,13.60
2022-09-02T14:17:14.512Z,12.57
2022-09-02T14:19:43.395Z,16.98
2022-09-02T14:22:23.551Z,14.73
2022-09-02T14:24:52.448Z,17.60
2022-09-02T14:27:23.480Z,15.25
2022-09-02T14:29:58.542Z,11.55
2022-09-02T14:32:29.274Z,15.30
2022-09-02T14:35:12.990Z,14.38
2022-09-02T14:38:00.203Z,11.73
2022-09-02T14:40:38.009Z,11.35
2022-09-02T14:43:14.435Z,10.68
2022-09-02T14:45:48.904Z,13.07
2022-09-02T14:48:22.759Z,13.82
2022-09-02T14:51:02.485Z,16.67
2022-09-02T14:53:33.095Z,18.38
2022-09-02T14:56:02.343Z,16.40
2022-09-02T14:58:31.504Z,13.93
2022-09-02T15:01:03.353Z,14.13
2022-09-02T15:03:37.817Z,13.77
2022-09-02T15:06:07.854Z,18.58
2022-09-02T15:08:39.372Z,13.07
2022-09-02T15:11:08.660Z,13.73
2022-09-02T15:13:37.965Z,12.65
2022-09-02T15:16:08.859Z,12.45
2022-09-02T15:18:38.215Z,12.10
2022-09-02T15:21:07.680Z,10.27
2022-09-02T15:23:41.205Z,10.93
2022-09-02T15:26:10.447Z,13.05
2022-09-02T15:28:39.835Z,12.13
2022-09-02T15:31:10.479Z,14.57
2022-09-02T15:33:41.035Z,13.27
2022-09-02T15:36:12.336Z,13.38
2022-09-02T15:38:42.207Z,11.93
2022-09-02T15:41:13.119Z,12.63
2022-09-02T15:43:43.519Z,11.80
2022-09-02T15:46:23.009Z,14.57
2022-09-02T15:48:52.964Z,15.25
2022-09-02T15:51:30.753Z,14.00
2022-09-02T15:54:01.529Z,16.35
2022-09-02T15:56:32.317Z,19.33
2022-09-02T15:59:04.506Z,13.18
2022-09-02T16:01:36.969Z,12.93
2022-09-02T16:04:07.720Z,14.27
2022-09-02T16:06:39.606Z,14.35
2022-09-02T16:09:09.505Z,12.90
2022-09-02T16:11:38.976Z,12.80
2022-09-02T16:14:08.814Z,12.10
2022-09-02T16:16:39.382Z,19.02
2022-09-02T16:19:09.117Z,12.48
2022-09-02T16:21:39.244Z,12.90
2022-09-02T16:24:09.213Z,11.30
2022-09-02T16:26:39.402Z,15.38
2022-09-02T16:29:09.811Z,14.52
2022-09-02T16:31:41.390Z,15.82
2022-09-02T16:34:12.123Z,11.65
2022-09-02T16:36:43.317Z,12.07
2022-09-02T16:39:14.366Z,17.88
2022-09-02T16:41:46.017Z,16.02
2022-09-02T16:44:20.727Z,13.27
2022-09-02T16:46:52.807Z,17.05
2022-09-02T16:49:22.923Z,18.38
2022-09-02T16:51:57.841Z,21.60
2022-09-02T16:54:31.228Z,25.98
2022-09-02T16:57:01.178Z,27.42
2022-09-02T16:59:31.722Z,26.58
2022-09-02T17:02:02.341Z,32.13
2022-09-02T17:04:31.502Z,32.28
2022-09-02T17:07:00.615Z,38.20
2022-09-02T17:09:29.563Z,34.13
2022-09-02T17:11:58.810Z,36.78
2022-09-02T17:14:27.894Z,35.10
2022-09-02T17:16:56.984Z,33.55
2022-09-02T17:19:32.094Z,33.80
2022-09-02T17:22:01.614Z,34.97
2022-09-02T17:24:31.834Z,34.38
2022-09-02T17:27:02.181Z,37.03
2022-09-02T17:32:21.653Z,35.30
2022-09-02T17:34:52.197Z,34.67
2022-09-02T17:37:22.791Z,36.03
2022-09-02T17:39:51.897Z,37.33
2022-09-02T17:42:21.390Z,36.35
2022-09-02T17:44:51.515Z,36.47
2022-09-02T17:47:22.910Z,35.28
2022-09-02T17:49:53.918Z,34.28
2022-09-02T17:52:24.643Z,35.95
2022-09-02T17:54:54.498Z,40.55
2022-09-02T17:57:42.358Z,39.22
2022-09-02T18:00:13.437Z,34.97
2022-09-02T18:03:22.018Z,38.25
2022-09-02T18:06:17.070Z,37.95
2022-09-02T18:08:53.014Z,44.30
2022-09-02T18:11:23.208Z,35.45
2022-09-02T18:14:01.106Z,37.97
2022-09-02T18:16:33.439Z,42.90
2022-09-02T18:19:19.434Z,38.90
2022-09-02T18:22:06.475Z,38.55
2022-09-02T18:24:57.182Z,41.03
2022-09-02T18:27:38.846Z,39.38
2022-09-02T18:30:10.052Z,38.08
2022-09-02T18:33:05.237Z,42.95
2022-09-02T18:35:47.657Z,39.70
2022-09-02T18:38:28.644Z,45.55
2022-09-02T18:41:14.440Z,43.72
2022-09-02T18:43:57.399Z,39.90
2022-09-02T18:46:29.578Z,44.40
2022-09-02T18:49:02.517Z,39.53
2022-09-02T18:51:36.230Z,42.05
2022-09-02T18:54:15.698Z,39.53
2022-09-02T18:56:50.493Z,45.08
2022-09-02T18:59:28.561Z,43.38
2022-09-02T19:02:02.302Z,46.63
2022-09-02T19:04:34.450Z,46.13
2022-09-02T19:07:21.087Z,46.38
2022-09-02T19:09:52.009Z,43.15
2022-09-02T19:12:21.402Z,43.95
2022-09-02T19:14:51.107Z,43.42
2022-09-02T19:17:20.245Z,44.85
2022-09-02T19:19:49.275Z,46.90
2022-09-02T19:22:24.536Z,42.25
2022-09-02T19:25:00.897Z,49.13
2022-09-02T19:27:33.650Z,47.53
2022-09-02T19:30:07.792Z,43.72
2022-09-02T19:32:38.811Z,44.13
2022-09-02T19:35:16.343Z,43.25
2022-09-02T19:37:47.124Z,52.65
2022-09-02T19:40:20.562Z,43.15
2022-09-02T19:45:21.826Z,45.78
2022-09-02T19:48:08.279Z,42.45
2022-09-02T19:50:38.602Z,44.80
2022-09-02T19:53:07.901Z,39.42
2022-09-02T19:55:38.523Z,43.10
2022-09-02T19:58:07.478Z,42.83
2022-09-02T20:00:43.459Z,37.60
2022-09-02T20:03:13.138Z,42.13
2022-09-02T20:05:42.707Z,41.22
2022-09-02T20:08:12.839Z,36.53
2022-09-02T20:10:43.175Z,42.05
2022-09-02T20:13:16.692Z,38.97
2022-09-02T20:15:45.822Z,38.42
2022-09-02T20:18:16.122Z,38.40
2022-09-02T20:20:46.694Z,39.13
2022-09-02T20:23:17.791Z,50.60
2022-09-02T20:26:10.298Z,38.88
2022-09-02T20:28:47.605Z,36.38
2022-09-02T20:31:26.833Z,36.50
2022-09-02T20:34:05.944Z,38.42
2022-09-02T20:36:39.691Z,37.05
2022-09-02T20:39:22.417Z,36.17
2022-09-02T20:42:04.150Z,40.95
2022-09-02T20:44:44.447Z,35.58
2022-09-02T20:47:35.350Z,35.17
2022-09-02T20:50:16.923Z,32.97
2022-09-02T20:53:00.952Z,33.40
2022-09-02T20:55:36.696Z,29.35
2022-09-02T20:58:19.575Z,28.95
2022-09-02T21:01:01.349Z,30.30
2022-09-02T21:03:41.219Z,24.77
2022-09-02T21:06:12.404Z,25.95
2022-09-02T21:08:48.919Z,28.85
2022-09-02T21:11:19.597Z,29.23
2022-09-02T21:13:55.749Z,31.15
2022-09-02T21:16:32.195Z,33.25
2022-09-02T21:19:08.039Z,27.05
2022-09-02T21:21:42.346Z,25.45
2022-09-02T21:24:15.002Z,25.05
2022-09-02T21:26:49.352Z,24.57
2022-09-02T21:29:27.778Z,26.45
2022-09-02T21:32:00.095Z,21.92
2022-09-02T21:34:34.815Z,26.35
2022-09-02T21:37:05.469Z,22.63
2022-09-02T21:39:39.543Z,23.60
2022-09-02T21:42:23.429Z,25.40
2022-09-02T21:45:06.285Z,24.13
2022-09-02T21:47:39.728Z,26.38
2022-09-02T21:52:56.979Z,24.15
2022-09-02T21:55:40.440Z,28.92
2022-09-02T21:58:28.992Z,21.48
2022-09-02T22:01:05.567Z,23.13
2022-09-02T22:03:42.342Z,23.13
2022-09-02T22:06:19.637Z,21.90
2022-09-02T22:08:58.643Z,24.77
2022-09-02T22:11:35.899Z,26.33
2022-09-02T22:14:14.520Z,23.42
2022-09-02T22:16:53.782Z,23.23
2022-09-02T22:19:24.064Z,22.25
2022-09-02T22:21:58.106Z,24.45
2022-09-02T22:24:31.234Z,22.77
2022-09-02T22:27:06.426Z,27.40
2022-09-02T22:29:42.673Z,26.33
2022-09-02T22:32:15.627Z,24.42
2022-09-02T22:34:50.736Z,23.00
2022-09-02T22:37:26.071Z,22.25
2022-09-02T22:39:57.318Z,27.08
2022-09-02T22:42:33.989Z,22.77
2022-09-02T22:45:26.232Z,23.13
2022-09-02T22:48:19.872Z,19.45
2022-09-02T22:51:15.034Z,22.25
2022-09-02T22:53:48.097Z,20.42
2022-09-02T22:56:26.552Z,23.77
2022-09-02T22:59:08.580Z,23.33
2022-09-02T23:01:53.584Z,21.65
2022-09-02T23:04:35.654Z,20.60
2022-09-02T23:07:05.505Z,23.48
2022-09-02T23:09:36.435Z,22.13
2022-09-02T23:12:17.893Z,19.17
2022-09-02T23:15:02.586Z,19.23
2022-09-02T23:17:44.636Z,20.33
2022-09-02T23:20:25.467Z,17.88
2022-09-02T23:23:07.392Z,19.05
2022-09-02T23:25:54.473Z,16.75
2022-09-02T23:28:32.480Z,19.98
2022-09-02T23:31:08.112Z,19.17
2022-09-02T23:33:51.446Z,17.85
2022-09-02T23:36:36.127Z,20.30
2022-09-02T23:39:19.085Z,17.35
2022-09-02T23:41:48.806Z,18.40
2022-09-02T23:44:23.071Z,16.48
2022-09-02T23:47:05.566Z,18.30
2022-09-02T23:49:40.265Z,16.65
2022-09-02T23:52:27.492Z,19.10
2022-09-02T23:55:13.310Z,14.40
2022-09-02T23:58:03.362Z,19.42
